createdAt,value
2019-03-21T00:00:05.410Z,14
2019-03-21T00:01:02.037Z,14
2019-03-21T00:02:02.317Z,15
2019-03-21T00:03:02.564Z,15
2019-03-21T00:04:01.933Z,14
2019-03-21T00:05:02.319Z,14
2019-03-21T00:06:02.462Z,12
2019-03-21T00:07:01.712Z,15
2019-03-21T00:08:01.931Z,10
2019-03-21T00:09:02.338Z,15
2019-03-21T00:10:02.596Z,13
2019-03-21T00:11:02.102Z,12
2019-03-21T00:12:02.328Z,11
2019-03-21T00:13:02.573Z,12
2019-03-21T00:14:07.667Z,15
2019-03-21T00:15:02.135Z,15
2019-03-21T00:16:02.429Z,13
2019-03-21T00:17:02.701Z,12
2019-03-21T00:18:01.870Z,14
2019-03-21T00:19:02.201Z,14
2019-03-21T00:20:02.471Z,12
2019-03-21T00:21:02.632Z,14
2019-03-21T00:22:01.791Z,9
2019-03-21T00:23:02.133Z,11
2019-03-21T00:24:02.416Z,13
2019-03-21T00:25:01.840Z,12
2019-03-21T00:26:02.132Z,12
2019-03-21T00:27:02.296Z,10
2019-03-21T00:28:02.576Z,11
2019-03-21T00:29:01.842Z,12
2019-03-21T00:30:02.132Z,13
2019-03-21T00:31:06.841Z,12
2019-03-21T00:32:02.576Z,11
2019-03-21T00:33:02.420Z,13
2019-03-21T00:34:01.749Z,9
2019-03-21T00:35:02.007Z,11
2019-03-21T00:36:02.213Z,11
2019-03-21T00:37:02.445Z,11
2019-03-21T00:38:01.707Z,11
2019-03-21T00:39:01.958Z,12
2019-03-21T00:40:02.296Z,12
2019-03-21T00:41:02.458Z,10
2019-03-21T00:42:02.551Z,8
2019-03-21T00:43:01.698Z,12
2019-03-21T00:44:01.961Z,9
2019-03-21T00:45:02.644Z,10
2019-03-21T00:46:01.940Z,13
2019-03-21T00:47:02.161Z,11
2019-03-21T00:48:02.359Z,12
2019-03-21T00:49:01.673Z,13
2019-03-21T00:50:01.925Z,8
2019-03-21T00:51:02.508Z,9
2019-03-21T00:52:01.637Z,11
2019-03-21T00:53:01.980Z,10
2019-03-21T00:54:02.212Z,13
2019-03-21T00:55:02.488Z,9
2019-03-21T00:56:01.853Z,13
2019-03-21T00:57:02.036Z,12
2019-03-21T00:58:02.364Z,10
2019-03-21T00:59:02.694Z,10
2019-03-21T01:00:03.535Z,13
2019-03-21T01:01:02.419Z,11
2019-03-21T01:02:01.924Z,8
2019-03-21T01:03:04.217Z,9
2019-03-21T01:04:02.136Z,9
2019-03-21T01:05:02.633Z,12
2019-03-21T01:06:01.867Z,7
2019-03-21T01:07:02.161Z,8
2019-03-21T01:08:02.436Z,10
2019-03-21T01:09:02.616Z,7
2019-03-21T01:10:01.947Z,7
2019-03-21T01:11:02.202Z,10
2019-03-21T01:12:02.500Z,8
2019-03-21T01:13:02.782Z,8
2019-03-21T01:14:01.963Z,10
2019-03-21T01:15:02.346Z,8
2019-03-21T01:16:02.483Z,8
2019-03-21T01:17:01.932Z,9
2019-03-21T01:18:01.955Z,11
2019-03-21T01:19:02.187Z,10
2019-03-21T01:20:02.524Z,9
2019-03-21T01:21:01.752Z,10
2019-03-21T01:22:02.056Z,9
2019-03-21T01:23:02.190Z,10
2019-03-21T01:24:02.575Z,11
2019-03-21T01:25:01.696Z,9
2019-03-21T01:26:02.205Z,8
2019-03-21T01:27:02.198Z,9
2019-03-21T01:28:02.623Z,10
2019-03-21T01:29:01.868Z,6
2019-03-21T01:30:02.151Z,7
2019-03-21T01:31:02.453Z,7
2019-03-21T01:32:02.668Z,12
2019-03-21T01:33:01.955Z,9
2019-03-21T01:34:02.226Z,8
2019-03-21T10:20:02.123Z,2
2019-03-21T10:21:02.238Z,1
2019-03-21T10:22:02.445Z,1
2019-03-21T10:23:01.634Z,2
2019-03-21T10:24:01.892Z,2
2019-03-21T10:25:02.193Z,4
2019-03-21T10:26:02.343Z,5
2019-03-21T10:27:02.623Z,3
2019-03-21T10:28:01.756Z,2
2019-03-21T10:29:02.020Z,4
2019-03-21T10:30:02.295Z,4
2019-03-21T10:31:02.557Z,2
2019-03-21T10:32:01.716Z,4
2019-03-21T10:33:02.017Z,3
2019-03-21T10:34:02.163Z,2
2019-03-21T10:35:02.360Z,3
2019-03-21T10:36:02.564Z,3
2019-03-21T10:37:01.774Z,4
2019-03-21T10:38:02.062Z,3
2019-03-21T10:39:02.084Z,3
2019-03-21T10:40:01.748Z,3
2019-03-21T10:41:01.916Z,2
2019-03-21T10:42:02.134Z,3
2019-03-21T10:43:02.018Z,5
2019-03-21T10:44:02.196Z,2
2019-03-21T10:45:02.473Z,4
2019-03-21T10:46:01.648Z,2
2019-03-21T10:47:01.913Z,3
2019-03-21T10:48:02.039Z,2
2019-03-21T10:49:02.286Z,4
2019-03-21T10:50:02.464Z,4
2019-03-21T10:51:01.686Z,2
2019-03-21T10:52:01.999Z,3
2019-03-21T10:53:02.103Z,3
2019-03-21T10:54:02.356Z,3
2019-03-21T10:55:02.426Z,3
2019-03-21T10:56:02.564Z,2
2019-03-21T10:57:01.885Z,3
2019-03-21T10:58:01.810Z,4
2019-03-21T10:59:02.015Z,4
2019-03-21T11:00:03.538Z,3
2019-03-21T11:01:02.384Z,2
2019-03-21T11:02:07.969Z,3
2019-03-21T11:03:01.806Z,2
2019-03-21T11:04:01.809Z,2
2019-03-21T11:05:01.892Z,3
2019-03-21T11:06:02.100Z,3
2019-03-21T11:07:02.413Z,2
2019-03-21T11:08:01.651Z,2
2019-03-21T11:09:02.022Z,3
2019-03-21T11:10:02.274Z,3
2019-03-21T11:11:02.543Z,2
2019-03-21T11:12:01.771Z,3
2019-03-21T11:13:01.988Z,5
2019-03-21T11:14:02.282Z,3
2019-03-21T11:15:02.379Z,3
2019-03-21T11:16:02.506Z,3
2019-03-21T11:17:01.730Z,3
2019-03-21T11:18:01.932Z,3
2019-03-21T11:19:02.079Z,3
2019-03-21T11:20:02.393Z,4
2019-03-21T11:21:02.600Z,4
2019-03-21T11:22:07.066Z,5
2019-03-21T11:23:02.089Z,2
2019-03-21T11:24:02.260Z,3
2019-03-21T11:25:02.542Z,3
2019-03-21T11:26:01.700Z,4
2019-03-21T11:27:01.916Z,4
2019-03-21T11:28:02.167Z,4
2019-03-21T11:29:02.365Z,3
2019-03-21T11:30:01.668Z,4
2019-03-21T11:31:01.816Z,3
2019-03-21T11:32:02.144Z,3
2019-03-21T11:33:02.230Z,4
2019-03-21T11:34:02.469Z,4
2019-03-21T11:35:01.674Z,4
2019-03-21T11:36:02.262Z,3
2019-03-21T11:37:02.541Z,3
2019-03-21T11:38:01.697Z,6
2019-03-21T11:39:01.988Z,5
2019-03-21T11:40:02.249Z,3
2019-03-21T11:41:02.479Z,3
2019-03-21T11:42:02.366Z,4
2019-03-21T11:43:02.351Z,3
2019-03-21T11:44:02.653Z,4
2019-03-21T11:45:01.875Z,6
2019-03-21T11:46:02.158Z,2
2019-03-21T11:47:02.275Z,3
2019-03-21T11:48:02.482Z,4
2019-03-21T11:49:01.677Z,5
2019-03-21T11:50:02.071Z,2
2019-03-21T11:51:02.144Z,4
2019-03-21T11:52:02.434Z,3
2019-03-21T11:53:02.564Z,3
2019-03-21T11:54:01.795Z,2
2019-03-21T11:55:02.073Z,5
2019-03-21T11:56:02.253Z,4
2019-03-21T11:57:02.506Z,3
2019-03-21T11:58:02.260Z,4
2019-03-21T11:59:02.350Z,3
2019-03-21T12:00:04.621Z,4
2019-03-21T12:01:02.493Z,4
2019-03-21T12:02:01.735Z,4
2019-03-21T12:03:04.659Z,4
2019-03-21T12:04:02.134Z,7
2019-03-21T12:05:02.304Z,4
2019-03-21T12:06:02.474Z,3
2019-03-21T12:07:01.727Z,5
2019-03-21T12:08:02.526Z,4
2019-03-21T12:09:01.699Z,6
2019-03-21T12:10:01.969Z,3
2019-03-21T12:11:02.180Z,2
2019-03-21T12:12:02.431Z,4
2019-03-21T12:13:02.627Z,3
2019-03-21T12:14:01.761Z,5
2019-03-21T12:15:02.038Z,4
2019-03-21T12:16:02.343Z,3
2019-03-21T12:17:02.561Z,3
2019-03-21T12:18:01.861Z,4
2019-03-21T12:19:01.968Z,4
2019-03-21T12:20:02.212Z,4
2019-03-21T12:21:02.464Z,4
2019-03-21T12:22:02.614Z,4
2019-03-21T12:23:01.876Z,4
2019-03-21T12:24:02.042Z,3
2019-03-21T12:25:02.244Z,4
2019-03-21T12:26:02.397Z,5
2019-03-21T12:27:01.649Z,3
2019-03-21T12:28:02.041Z,3
2019-03-21T12:29:02.037Z,4
2019-03-21T12:30:02.663Z,3
2019-03-21T12:31:01.891Z,3
2019-03-21T12:32:02.051Z,4
2019-03-21T12:33:02.247Z,5
2019-03-21T12:34:02.196Z,3
2019-03-21T12:35:02.475Z,5
2019-03-21T12:36:02.662Z,4
2019-03-21T12:37:01.996Z,5
2019-03-21T12:38:02.187Z,5
2019-03-21T12:39:02.461Z,4
2019-03-21T12:40:02.640Z,5
2019-03-21T12:41:02.610Z,4
2019-03-21T12:42:01.777Z,3
2019-03-21T12:43:01.964Z,4
2019-03-21T12:44:02.263Z,3
2019-03-21T12:45:02.541Z,5
2019-03-21T12:46:02.634Z,6
2019-03-21T12:47:01.817Z,5
2019-03-21T12:48:02.102Z,4
2019-03-21T12:49:02.301Z,4
2019-03-21T12:50:02.429Z,4
2019-03-21T12:51:02.615Z,5
2019-03-21T12:52:01.807Z,5
2019-03-21T12:53:01.998Z,5
2019-03-21T12:54:02.183Z,2
2019-03-21T12:55:02.433Z,4
2019-03-21T12:56:02.637Z,4
2019-03-21T12:57:01.808Z,4
2019-03-21T12:58:02.152Z,5
2019-03-21T12:59:02.334Z,4
2019-03-21T13:00:03.256Z,4
2019-03-21T13:01:02.066Z,5
2019-03-21T13:02:02.337Z,4
2019-03-21T13:03:02.537Z,4
2019-03-21T13:04:01.747Z,4
2019-03-21T13:05:01.963Z,4
2019-03-21T13:06:02.099Z,5
2019-03-21T13:07:02.292Z,3
2019-03-21T13:08:02.397Z,5
2019-03-21T13:09:01.657Z,4
2019-03-21T13:10:01.703Z,5
2019-03-21T13:11:01.900Z,3
2019-03-21T13:12:02.040Z,4
2019-03-21T13:13:02.342Z,4
2019-03-21T13:14:02.439Z,4
2019-03-21T13:15:01.670Z,4
2019-03-21T13:16:01.876Z,4
2019-03-21T13:17:02.155Z,4
2019-03-21T13:18:02.432Z,3
2019-03-21T13:19:02.464Z,4
2019-03-21T13:20:01.679Z,4
2019-03-21T13:21:01.717Z,3
2019-03-21T13:22:02.040Z,5
2019-03-21T13:23:02.272Z,3
2019-03-21T13:24:02.531Z,4
2019-03-21T13:25:01.809Z,5
2019-03-21T13:26:01.887Z,5
2019-03-21T13:27:02.183Z,3
2019-03-21T13:28:02.344Z,4
2019-03-21T13:29:02.512Z,4
2019-03-21T13:30:04.041Z,4
2019-03-21T13:31:01.847Z,4
2019-03-21T13:32:02.126Z,4
2019-03-21T13:33:02.321Z,5
2019-03-21T13:34:01.920Z,5
2019-03-21T13:35:02.185Z,4
2019-03-21T13:36:02.420Z,2
2019-03-21T13:37:01.660Z,4
2019-03-21T13:38:01.837Z,2
2019-03-21T13:39:01.893Z,2
2019-03-21T13:40:02.186Z,2
2019-03-21T13:41:02.260Z,3
2019-03-21T13:42:02.497Z,3
2019-03-21T13:43:01.780Z,4
2019-03-21T13:44:01.993Z,3
2019-03-21T13:45:02.234Z,3
2019-03-21T13:46:02.397Z,3
2019-03-21T13:47:02.654Z,3
2019-03-21T13:48:01.906Z,3
2019-03-21T13:49:02.043Z,4
2019-03-21T13:50:02.287Z,2
2019-03-21T13:51:02.561Z,3
2019-03-21T13:52:01.721Z,4
2019-03-21T13:53:18.153Z,3
2019-03-21T13:54:02.228Z,3
2019-03-21T13:55:02.454Z,3
2019-03-21T13:56:02.707Z,3
2019-03-21T13:57:01.872Z,3
2019-03-21T13:58:02.040Z,1
2019-03-21T13:59:02.319Z,3
2019-03-21T14:00:03.962Z,3
2019-03-21T14:01:01.855Z,2
2019-03-21T14:02:02.018Z,1
2019-03-21T14:03:02.229Z,4
2019-03-21T14:04:02.482Z,4
2019-03-21T14:05:02.700Z,2
2019-03-21T14:06:01.741Z,3
2019-03-21T14:07:01.963Z,3
2019-03-21T14:08:02.081Z,2
2019-03-21T14:09:02.339Z,2
2019-03-21T14:10:02.644Z,3
2019-03-21T14:11:01.787Z,1
2019-03-21T14:12:02.167Z,3
2019-03-21T14:13:02.401Z,1
2019-03-21T14:14:01.704Z,3
2019-03-21T14:15:01.991Z,5
2019-03-21T14:16:02.003Z,3
2019-03-21T14:17:02.129Z,4
2019-03-21T14:18:02.313Z,1
2019-03-21T14:19:02.207Z,5
2019-03-21T14:20:02.617Z,2
2019-03-21T14:21:01.659Z,3
2019-03-21T14:22:01.828Z,3
2019-03-21T14:23:02.073Z,3
2019-03-21T14:24:02.347Z,4
2019-03-21T14:25:01.842Z,4
2019-03-21T14:26:01.921Z,3
2019-03-21T14:27:02.199Z,1
2019-03-21T14:28:02.423Z,2
2019-03-21T14:29:13.309Z,2
2019-03-21T14:30:02.720Z,2
2019-03-21T14:31:02.081Z,3
2019-03-21T14:32:02.406Z,4
2019-03-21T14:33:02.333Z,2
2019-03-21T14:34:02.440Z,3
2019-03-21T14:35:01.716Z,2
2019-03-21T14:36:01.911Z,4
2019-03-21T14:37:01.965Z,3
2019-03-21T14:38:02.107Z,3
2019-03-21T14:39:02.371Z,3
2019-03-21T14:40:02.588Z,3
2019-03-21T14:41:01.761Z,4
2019-03-21T14:42:01.963Z,2
2019-03-21T14:43:02.173Z,2
2019-03-21T14:44:02.480Z,2
2019-03-21T14:45:02.614Z,3
2019-03-21T14:46:01.790Z,2
2019-03-21T14:47:02.129Z,4
2019-03-21T14:48:01.970Z,3
2019-03-21T14:49:02.160Z,2
2019-03-21T14:50:02.358Z,2
2019-03-21T14:51:02.572Z,3
2019-03-21T14:52:01.896Z,3
2019-03-21T14:53:01.984Z,3
2019-03-21T14:54:01.996Z,3
2019-03-21T14:55:01.908Z,2
2019-03-21T14:56:01.981Z,3
2019-03-21T14:57:02.300Z,2
2019-03-21T14:58:02.377Z,4
2019-03-21T14:59:01.618Z,2
2019-03-21T15:00:04.230Z,3
2019-03-21T15:01:01.773Z,4
2019-03-21T15:02:02.222Z,3
2019-03-21T15:03:02.312Z,2
2019-03-21T15:04:02.400Z,3
2019-03-21T15:05:01.723Z,3
2019-03-21T15:06:01.857Z,3
2019-03-21T15:07:02.056Z,3
2019-03-21T15:08:02.286Z,2
2019-03-21T15:09:02.375Z,4
2019-03-21T15:10:02.730Z,3
2019-03-21T15:11:01.877Z,3
2019-03-21T15:12:02.433Z,4
2019-03-21T15:13:02.410Z,3
2019-03-21T15:14:02.506Z,4
2019-03-21T15:15:01.937Z,4
2019-03-21T15:16:02.008Z,3
2019-03-21T15:17:02.245Z,4
2019-03-21T15:18:02.462Z,4
2019-03-21T15:19:02.703Z,2
2019-03-21T15:20:01.804Z,2
2019-03-21T15:21:02.037Z,4
2019-03-21T15:22:02.202Z,4
2019-03-21T15:23:01.619Z,2
2019-03-21T15:24:01.929Z,4
2019-03-21T15:25:02.346Z,1
2019-03-21T15:26:02.468Z,3
2019-03-21T15:27:01.633Z,3
2019-03-21T15:28:01.659Z,3
2019-03-21T15:29:01.966Z,3
2019-03-21T15:30:02.313Z,4
2019-03-21T15:31:02.258Z,3
2019-03-21T15:32:02.573Z,2
2019-03-21T15:33:02.673Z,4
2019-03-21T15:34:02.208Z,4
2019-03-21T15:35:02.316Z,3
2019-03-21T15:36:02.635Z,2
2019-03-21T15:37:02.005Z,4
2019-03-21T15:38:01.958Z,4
2019-03-21T15:39:02.325Z,3
2019-03-21T15:40:02.402Z,4
2019-03-21T15:41:02.661Z,3
2019-03-21T15:42:01.827Z,3
2019-03-21T15:43:02.117Z,4
2019-03-21T15:44:02.274Z,3
2019-03-21T15:45:23.610Z,4
2019-03-21T15:46:02.364Z,1
2019-03-21T15:47:02.608Z,4
2019-03-21T15:48:01.684Z,3
2019-03-21T15:49:02.063Z,5
2019-03-21T15:50:02.286Z,4
2019-03-21T15:51:05.440Z,5
2019-03-21T15:52:02.739Z,4
2019-03-21T15:53:01.880Z,2
2019-03-21T15:54:02.170Z,3
2019-03-21T15:55:02.518Z,3
2019-03-21T15:56:02.464Z,2
2019-03-21T15:57:01.681Z,5
2019-03-21T15:58:01.917Z,4
2019-03-21T15:59:02.157Z,4
2019-03-21T16:00:02.525Z,4
2019-03-21T16:01:02.675Z,3
2019-03-21T16:02:01.955Z,3
2019-03-21T16:03:02.200Z,4
2019-03-21T16:04:02.390Z,4
2019-03-21T16:05:02.626Z,3
2019-03-21T16:06:01.726Z,3
2019-03-21T16:07:02.062Z,4
2019-03-21T16:08:02.193Z,3
2019-03-21T16:09:02.352Z,4
2019-03-21T16:10:02.822Z,4
2019-03-21T16:11:01.933Z,2
2019-03-21T16:12:02.091Z,6
2019-03-21T16:13:02.396Z,4
2019-03-21T16:14:02.543Z,3
2019-03-21T16:15:01.785Z,2
2019-03-21T16:16:02.029Z,3
2019-03-21T16:17:02.180Z,3
2019-03-21T16:18:02.528Z,4
2019-03-21T16:19:02.655Z,4
2019-03-21T16:20:02.049Z,4
2019-03-21T16:21:02.135Z,3
2019-03-21T16:22:02.439Z,4
2019-03-21T16:23:02.629Z,3
2019-03-21T16:24:06.151Z,4
2019-03-21T16:25:02.044Z,4
2019-03-21T16:26:02.332Z,3
2019-03-21T16:27:02.206Z,3
2019-03-21T16:28:02.272Z,4
2019-03-21T16:29:02.247Z,3
2019-03-21T16:30:02.596Z,4
2019-03-21T16:31:01.809Z,2
2019-03-21T16:32:02.819Z,2
2019-03-21T16:33:01.804Z,6
2019-03-21T16:34:02.082Z,4
2019-03-21T16:35:02.427Z,6
2019-03-21T16:36:02.654Z,3
2019-03-21T16:37:01.738Z,2
2019-03-21T16:38:02.000Z,3
2019-03-21T16:39:02.114Z,5
2019-03-21T16:40:02.367Z,4
2019-03-21T16:41:02.714Z,3
2019-03-21T16:42:01.826Z,5
2019-03-21T16:43:02.154Z,5
2019-03-21T16:44:02.154Z,4
2019-03-21T16:45:02.620Z,4
2019-03-21T16:46:01.752Z,4
2019-03-21T16:47:01.882Z,5
2019-03-21T16:48:02.031Z,4
2019-03-21T16:49:02.239Z,4
2019-03-21T16:50:02.482Z,4
2019-03-21T16:51:03.512Z,5
2019-03-21T16:52:02.001Z,2
2019-03-21T16:53:02.197Z,4
2019-03-21T16:54:02.434Z,5
2019-03-21T16:55:02.695Z,5
2019-03-21T16:56:01.815Z,3
2019-03-21T16:57:02.083Z,5
2019-03-21T16:58:02.318Z,3
2019-03-21T16:59:03.200Z,6
2019-03-21T17:00:11.676Z,5
2019-03-21T17:01:02.387Z,3
2019-03-21T17:02:01.719Z,3
2019-03-21T17:03:01.887Z,5
2019-03-21T17:04:02.143Z,4
2019-03-21T17:05:02.447Z,4
2019-03-21T17:06:02.621Z,3
2019-03-21T17:07:02.012Z,4
2019-03-21T17:08:11.966Z,3
2019-03-21T17:09:02.164Z,5
2019-03-21T17:10:02.424Z,5
2019-03-21T17:11:02.743Z,4
2019-03-21T17:12:01.926Z,4
2019-03-21T17:13:06.444Z,4
2019-03-21T17:14:02.272Z,4
2019-03-21T17:15:02.502Z,5
2019-03-21T17:16:01.738Z,4
2019-03-21T17:17:02.065Z,3
2019-03-21T17:18:02.296Z,4
2019-03-21T17:19:02.066Z,4
2019-03-21T17:20:04.190Z,5
2019-03-21T17:21:02.620Z,2
2019-03-21T17:22:02.901Z,4
2019-03-21T17:23:01.776Z,5
2019-03-21T17:24:02.035Z,5
2019-03-21T17:25:02.298Z,4
2019-03-21T17:26:02.489Z,5
2019-03-21T17:27:01.918Z,5
2019-03-21T17:28:01.891Z,5
2019-03-21T17:29:02.250Z,3
2019-03-21T17:30:02.430Z,6
2019-03-21T17:31:02.528Z,6
2019-03-21T17:32:01.864Z,4
2019-03-21T17:33:02.037Z,5
2019-03-21T17:34:04.574Z,7
2019-03-21T17:35:02.552Z,5
2019-03-21T17:36:01.841Z,4
2019-03-21T17:37:01.992Z,5
2019-03-21T17:38:02.207Z,6
2019-03-21T17:39:02.400Z,6
2019-03-21T17:40:01.776Z,5
2019-03-21T17:41:02.047Z,5
2019-03-21T17:42:02.125Z,5
2019-03-21T17:43:02.320Z,4
2019-03-21T17:44:02.654Z,4
2019-03-21T17:45:01.878Z,5
2019-03-21T17:46:02.152Z,4
2019-03-21T17:47:02.299Z,4
2019-03-21T17:48:02.578Z,5
2019-03-21T17:49:02.344Z,4
2019-03-21T17:50:02.678Z,4
2019-03-21T17:51:02.770Z,5
2019-03-21T17:52:01.843Z,5
2019-03-21T17:53:02.028Z,6
2019-03-21T17:54:02.335Z,6
2019-03-21T17:55:02.505Z,6
2019-03-21T17:56:01.693Z,6
2019-03-21T17:57:01.919Z,7
2019-03-21T17:58:02.296Z,6
2019-03-21T17:59:02.382Z,8
2019-03-21T18:00:04.364Z,5
2019-03-21T18:01:02.219Z,5
2019-03-21T18:02:02.307Z,5
2019-03-21T18:03:02.638Z,6
2019-03-21T18:04:01.790Z,7
2019-03-21T18:05:02.021Z,8
2019-03-21T18:06:02.147Z,6
2019-03-21T18:07:02.335Z,7
2019-03-21T18:08:02.705Z,7
2019-03-21T18:09:02.512Z,9
2019-03-21T18:10:01.796Z,8
2019-03-21T18:11:01.948Z,7
2019-03-21T18:12:02.167Z,7
2019-03-21T18:13:02.449Z,8
2019-03-21T18:14:02.735Z,6
2019-03-21T18:15:01.979Z,8
2019-03-21T18:16:02.168Z,8
2019-03-21T18:17:02.346Z,6
2019-03-21T18:18:02.730Z,7
2019-03-21T18:19:01.803Z,8
2019-03-21T18:20:02.042Z,8
2019-03-21T18:21:02.196Z,6
2019-03-21T18:22:02.418Z,7
2019-03-21T18:23:01.813Z,8
2019-03-21T18:24:01.981Z,10
2019-03-21T18:25:02.250Z,9
2019-03-21T18:26:02.348Z,10
2019-03-21T18:27:02.533Z,9
2019-03-21T18:28:01.872Z,8
2019-03-21T18:29:01.921Z,9
2019-03-21T18:30:02.247Z,8
2019-03-21T18:31:02.551Z,7
2019-03-21T18:32:01.674Z,9
2019-03-21T18:33:01.960Z,10
2019-03-21T18:34:02.186Z,7
2019-03-21T18:35:02.410Z,7
2019-03-21T18:36:02.617Z,9
2019-03-21T18:37:01.853Z,10
2019-03-21T18:38:02.246Z,8
2019-03-21T18:39:02.347Z,11
2019-03-21T18:40:02.579Z,11
2019-03-21T18:41:01.753Z,9
2019-03-21T18:42:01.914Z,11
2019-03-21T18:43:02.139Z,10
2019-03-21T18:44:02.376Z,13
2019-03-21T18:45:02.451Z,17
2019-03-21T18:46:02.501Z,16
2019-03-21T18:47:01.678Z,15
2019-03-21T18:48:01.932Z,13
2019-03-21T18:49:02.133Z,17
2019-03-21T18:50:02.437Z,18
2019-03-21T18:51:02.539Z,18
2019-03-21T18:52:01.871Z,12
2019-03-21T18:53:02.170Z,16
2019-03-21T18:54:02.273Z,18
2019-03-21T18:55:07.403Z,14
2019-03-21T18:56:01.744Z,14
2019-03-21T18:57:02.038Z,12
2019-03-21T18:58:02.213Z,13
2019-03-21T18:59:02.405Z,16
2019-03-21T19:00:03.755Z,15
2019-03-21T19:01:01.707Z,10
2019-03-21T19:02:01.983Z,13
2019-03-21T19:03:02.112Z,15
2019-03-21T19:04:02.385Z,14
2019-03-21T19:05:02.603Z,18
2019-03-21T19:06:01.846Z,14
2019-03-21T19:07:02.511Z,14
2019-03-21T19:08:02.508Z,13
2019-03-21T19:09:02.597Z,16
2019-03-21T19:10:01.804Z,11
2019-03-21T19:11:02.055Z,14
2019-03-21T19:12:02.366Z,13
2019-03-21T19:13:02.497Z,14
2019-03-21T19:14:02.695Z,12
2019-03-21T19:15:01.882Z,12
2019-03-21T19:16:02.058Z,13
2019-03-21T19:17:02.552Z,11
2019-03-21T19:18:02.505Z,11
2019-03-21T19:19:01.818Z,14
2019-03-21T19:20:02.006Z,12
2019-03-21T19:21:02.227Z,13
2019-03-21T19:22:02.511Z,10
2019-03-21T19:23:01.716Z,11
2019-03-21T19:24:01.947Z,10
2019-03-21T19:25:02.183Z,10
2019-03-21T19:26:02.394Z,12
2019-03-21T19:27:02.474Z,12
2019-03-21T19:28:01.694Z,8
2019-03-21T19:29:01.965Z,12
2019-03-21T19:30:02.414Z,11
2019-03-21T19:31:02.390Z,10
2019-03-21T19:32:02.290Z,15
2019-03-21T19:33:02.520Z,9
2019-03-21T19:34:01.740Z,10
2019-03-21T19:35:02.000Z,9
2019-03-21T19:36:02.343Z,10
2019-03-21T19:37:02.363Z,8
2019-03-21T19:38:02.578Z,9
2019-03-21T19:39:01.939Z,11
2019-03-21T19:40:02.267Z,8
2019-03-21T19:41:02.358Z,11
2019-03-21T19:42:02.520Z,10
2019-03-21T19:43:02.556Z,10
2019-03-21T19:44:01.726Z,9
2019-03-21T19:45:02.660Z,9
2019-03-21T19:46:02.318Z,7
2019-03-21T19:47:02.439Z,9
2019-03-21T19:48:01.722Z,8
2019-03-21T19:49:01.983Z,11
2019-03-21T19:50:02.269Z,7
2019-03-21T19:51:02.827Z,9
2019-03-21T19:52:01.632Z,9
2019-03-21T19:53:01.875Z,8
2019-03-21T19:54:02.224Z,9
2019-03-21T19:55:02.568Z,8
2019-03-21T19:56:09.236Z,7
2019-03-21T19:57:01.976Z,8
2019-03-21T19:58:02.214Z,10
2019-03-21T19:59:02.437Z,10
2019-03-21T20:00:03.364Z,7
2019-03-21T20:01:02.273Z,9
2019-03-21T20:02:02.526Z,11
2019-03-21T20:03:01.793Z,9
2019-03-21T20:04:01.920Z,10
2019-03-21T20:05:02.321Z,9
2019-03-21T20:06:02.418Z,8
2019-03-21T20:07:02.704Z,10
2019-03-21T20:08:01.894Z,5
2019-03-21T20:09:02.021Z,7
2019-03-21T20:10:02.420Z,9
2019-03-21T20:11:02.460Z,8
2019-03-21T20:12:01.759Z,7
2019-03-21T20:13:01.891Z,7
2019-03-21T20:14:04.461Z,6
2019-03-21T20:15:02.346Z,9
2019-03-21T20:16:02.644Z,7
2019-03-21T20:17:01.774Z,8
2019-03-21T20:18:02.062Z,10
2019-03-21T20:19:02.321Z,7
2019-03-21T20:20:02.556Z,8
2019-03-21T20:21:01.751Z,8
2019-03-21T20:22:02.020Z,8
2019-03-21T20:23:02.263Z,7
2019-03-21T20:24:02.384Z,9
2019-03-21T20:25:01.724Z,7
2019-03-21T20:26:01.880Z,8
2019-03-21T20:27:02.182Z,10
2019-03-21T20:28:02.332Z,8
2019-03-21T20:29:02.507Z,12
2019-03-21T20:30:01.760Z,18
2019-03-21T20:31:01.999Z,28
2019-03-21T20:32:02.192Z,49
2019-03-21T20:33:02.066Z,49
2019-03-21T20:34:02.260Z,46
2019-03-21T20:35:02.570Z,37
2019-03-21T20:36:01.810Z,33
2019-03-21T20:37:02.083Z,43
2019-03-21T20:38:02.440Z,36
2019-03-21T20:39:02.521Z,40
2019-03-21T20:40:01.734Z,44
2019-03-21T20:41:01.932Z,39
2019-03-21T20:42:02.184Z,39
2019-03-21T20:43:02.464Z,42
2019-03-21T20:44:01.807Z,37
2019-03-21T20:45:02.036Z,38
2019-03-21T20:46:02.126Z,44
2019-03-21T20:47:02.352Z,41
2019-03-21T20:48:02.472Z,41
2019-03-21T20:49:01.810Z,42
2019-03-21T20:50:02.012Z,36
2019-03-21T20:51:02.115Z,45
2019-03-21T20:52:02.392Z,47
2019-03-21T20:53:02.605Z,38
2019-03-21T20:54:01.930Z,39
2019-03-21T20:55:02.105Z,38
2019-03-21T20:56:02.104Z,46
2019-03-21T20:57:02.248Z,38
2019-03-21T20:58:02.542Z,36
2019-03-21T20:59:01.726Z,39
2019-03-21T21:00:02.469Z,35
2019-03-21T21:01:02.270Z,43
2019-03-21T21:02:03.510Z,32
2019-03-21T21:03:02.845Z,33
2019-03-21T21:04:01.880Z,39
2019-03-21T21:05:02.093Z,33
2019-03-21T21:06:02.328Z,32
2019-03-21T21:07:02.475Z,32
2019-03-21T21:08:01.887Z,38
2019-03-21T21:09:02.099Z,40
2019-03-21T21:10:02.319Z,36
2019-03-21T21:11:02.645Z,34
2019-03-21T21:12:01.731Z,38
2019-03-21T21:13:01.934Z,34
2019-03-21T21:14:02.114Z,33
2019-03-21T21:15:02.477Z,31
2019-03-21T21:16:02.684Z,38
2019-03-21T21:17:01.828Z,33
2019-03-21T21:18:02.119Z,31
2019-03-21T21:19:02.288Z,34
2019-03-21T21:20:02.602Z,33
2019-03-21T21:21:01.809Z,29
2019-03-21T21:22:02.101Z,32
2019-03-21T21:23:02.338Z,31
2019-03-21T21:24:02.620Z,36
2019-03-21T21:25:01.895Z,29
2019-03-21T21:26:06.324Z,32
2019-03-21T21:27:02.071Z,30
2019-03-21T21:28:02.303Z,29
2019-03-21T21:29:02.496Z,32
2019-03-21T21:30:02.879Z,31
2019-03-21T21:31:01.727Z,26
2019-03-21T21:32:02.059Z,27
2019-03-21T21:33:03.257Z,32
2019-03-21T21:34:02.389Z,31
2019-03-21T21:35:02.633Z,29
2019-03-21T21:36:01.828Z,27
2019-03-21T21:37:01.975Z,28
2019-03-21T21:38:02.300Z,30
2019-03-21T21:39:02.502Z,31
2019-03-21T21:40:01.931Z,29
2019-03-21T21:41:01.962Z,26
2019-03-21T21:42:02.275Z,23
2019-03-21T21:43:02.438Z,28
2019-03-21T21:44:02.595Z,30
2019-03-21T21:45:01.908Z,28
2019-03-21T21:46:02.041Z,26
2019-03-21T21:47:02.365Z,30
2019-03-21T21:48:02.499Z,26
2019-03-21T21:49:01.684Z,27
2019-03-21T21:50:02.036Z,27
2019-03-21T21:51:02.306Z,27
2019-03-21T21:52:02.462Z,28
2019-03-21T21:53:01.614Z,26
2019-03-21T21:54:01.810Z,26
2019-03-21T21:55:02.103Z,27
2019-03-21T21:56:02.262Z,30
2019-03-21T21:57:02.531Z,31
2019-03-21T21:58:01.724Z,24
2019-03-21T21:59:02.042Z,30
2019-03-21T22:00:05.193Z,26
2019-03-21T22:01:01.935Z,23
2019-03-21T22:02:02.157Z,27
2019-03-21T22:03:02.348Z,27
2019-03-21T22:04:05.481Z,27
2019-03-21T22:05:01.894Z,27
2019-03-21T22:06:02.133Z,25
2019-03-21T22:07:02.474Z,27
2019-03-21T22:08:02.567Z,24
2019-03-21T22:09:01.756Z,24
2019-03-21T22:10:02.070Z,25
2019-03-21T22:11:02.300Z,25
2019-03-21T22:12:02.522Z,28
2019-03-21T22:13:01.730Z,23
2019-03-21T22:14:01.940Z,22
2019-03-21T22:15:02.146Z,26
2019-03-21T22:16:02.151Z,25
2019-03-21T22:17:02.090Z,25
2019-03-21T22:18:02.371Z,27
2019-03-21T22:19:01.829Z,26
2019-03-21T22:20:02.041Z,25
2019-03-21T22:21:02.258Z,22
2019-03-21T22:22:02.593Z,26
2019-03-21T22:23:01.730Z,26
2019-03-21T22:24:01.919Z,22
2019-03-21T22:25:02.241Z,21
2019-03-21T22:26:02.392Z,25
2019-03-21T22:27:01.617Z,26
2019-03-21T22:28:01.880Z,22
2019-03-21T22:29:02.081Z,29
2019-03-21T22:30:04.744Z,27
2019-03-21T22:31:02.552Z,29
2019-03-21T22:32:01.792Z,24
2019-03-21T22:33:02.076Z,22
2019-03-21T22:34:02.193Z,21
2019-03-21T22:35:02.487Z,26
2019-03-21T22:36:01.659Z,25
2019-03-21T22:37:01.857Z,23
2019-03-21T22:38:02.184Z,22
2019-03-21T22:39:02.497Z,29
2019-03-21T22:40:02.586Z,25
2019-03-21T22:41:01.776Z,27
2019-03-21T22:42:02.053Z,20
2019-03-21T22:43:01.947Z,22
2019-03-21T22:44:01.809Z,25
2019-03-21T22:45:02.532Z,22
2019-03-21T22:46:01.759Z,24
2019-03-21T22:47:02.085Z,25
2019-03-21T22:48:01.631Z,22
2019-03-21T22:49:01.948Z,20
2019-03-21T22:50:02.139Z,26
2019-03-21T22:51:02.345Z,20
2019-03-21T22:52:02.643Z,26
2019-03-21T22:53:01.803Z,21
2019-03-21T22:54:02.041Z,23
2019-03-21T22:55:02.408Z,26
2019-03-21T22:56:02.650Z,23
2019-03-21T22:57:01.974Z,29
2019-03-21T22:58:02.171Z,22
2019-03-21T22:59:02.303Z,24
2019-03-21T23:00:07.227Z,19
2019-03-21T23:01:01.971Z,18
2019-03-21T23:02:02.168Z,26
2019-03-21T23:03:02.372Z,23
2019-03-21T23:04:03.440Z,20
2019-03-21T23:05:01.898Z,20
2019-03-21T23:06:02.142Z,21
2019-03-21T23:07:02.305Z,24
2019-03-21T23:08:02.492Z,31
2019-03-21T23:09:01.813Z,21
2019-03-21T23:10:01.927Z,23
2019-03-21T23:11:02.210Z,23
2019-03-21T23:12:02.532Z,19
2019-03-21T23:13:02.580Z,28
2019-03-21T23:14:01.837Z,23
2019-03-21T23:15:02.068Z,22
2019-03-21T23:16:02.363Z,26
2019-03-21T23:17:02.574Z,21
2019-03-21T23:18:01.737Z,27
2019-03-21T23:19:02.060Z,21
2019-03-21T23:20:02.328Z,22